Hauptseite
METAR-TAF:

METAR-TAF

Flughäfen :

Fliegerhorst Hinterstoisser

Zeltweg, Österreich

Breite: 47-12N, Länge: 014-45E, Höhe: 677 m

Beobachtung

Neuester Wetterbericht von vor 18 Minuten, um 05:50 UTC
Wind 2 kt aus unterschiedlichen Richtungen
Temperatur -7°C
Luftfeuchtigkeit 93%
Luftdruck 1040 hPa

METAR: LOXZ 200550Z VRB02KT 20KM FEW050SC SCT160AC M07/M08 Q1040

Zeit: 07:08 (06:08 UTC)

Prognose

Neuester Wetterbericht von vor 18 Stunden und 53 Minuten, um 11:15 UTC
Gültige Prognose vom 19 um 12 UTC bis 19 um 21 UTC
Wind 3 kt aus unterschiedlichen Richtungen
Sichtweite 10 km oder mehr
Leicht bewölkt in der Höhe von 5000 ft
Aufgelockert bewölkt in der Höhe von 10000 ft

TAF: LOXZ 191115Z 1912/1921 VRB03KT 9999 FEW050 SCT100

Wetterbeobachtungen und Prognosen von mehr als 4000 Flughäfen (METAR und TAF Bericht).

Die verfügbaren Stationen werden durch gelbe und rote Markierungen auf der Karte dargestellt.

Führen Sie die Maus auf sie, um den Namen der Station zu sehen.

Darauf klicken, um die Beobachtung von Wetterbeobachtungen und Prognosen zu sehen.

Um die Karte zu ändern : klicken Sie auf den grünen Tasten mit einem schwarzen Kreuz Zum Vergrößern, auf den grünen Button mit einem Gedankenstrich zu verkleinern, oder auf die grünen Pfeile für benachbarte Karten.


METAR-TAF: